sensor_id;sensor_type;location;lat;lon;timestamp;temperature;humidity
4425;DHT22;2225;53.568;13.266;2024-01-15T00:00:28;6.00;99.90
4425;DHT22;2225;53.568;13.266;2024-01-15T00:02:55;6.00;99.90
4425;DHT22;2225;53.568;13.266;2024-01-15T00:05:23;5.90;99.90
4425;DHT22;2225;53.568;13.266;2024-01-15T00:07:50;5.90;99.90
4425;DHT22;2225;53.568;13.266;2024-01-15T00:10:17;5.80;99.90
4425;DHT22;2225;53.568;13.266;2024-01-15T00:12:44;5.80;99.90
4425;DHT22;2225;53.568;13.266;2024-01-15T00:15:11;5.80;99.90
4425;DHT22;2225;53.568;13.266;2024-01-15T00:17:38;5.80;99.90
4425;DHT22;2225;53.568;13.266;2024-01-15T00:20:06;5.80;99.90
4425;DHT22;2225;53.568;13.266;2024-01-15T00:22:33;5.80;99.90
4425;DHT22;2225;53.568;13.266;2024-01-15T00:25:02;5.80;99.90
4425;DHT22;2225;53.568;13.266;2024-01-15T00:27:30;5.80;99.90
4425;DHT22;2225;53.568;13.266;2024-01-15T00:29:57;5.70;99.90
4425;DHT22;2225;53.568;13.266;2024-01-15T00:32:24;5.70;99.90
4425;DHT22;2225;53.568;13.266;2024-01-15T00:34:51;5.70;99.90
4425;DHT22;2225;53.568;13.266;2024-01-15T00:37:18;5.70;99.80
4425;DHT22;2225;53.568;13.266;2024-01-15T00:39:45;5.60;99.70
4425;DHT22;2225;53.568;13.266;2024-01-15T00:42:12;5.60;99.70
4425;DHT22;2225;53.568;13.266;2024-01-15T00:44:39;5.60;99.60
4425;DHT22;2225;53.568;13.266;2024-01-15T00:47:06;5.50;99.50
4425;DHT22;2225;53.568;13.266;2024-01-15T00:49:33;5.50;99.60
4425;DHT22;2225;53.568;13.266;2024-01-15T00:52:00;5.50;99.60
4425;DHT22;2225;53.568;13.266;2024-01-15T00:54:27;5.40;99.60
4425;DHT22;2225;53.568;13.266;2024-01-15T00:56:54;5.40;99.60
4425;DHT22;2225;53.568;13.266;2024-01-15T00:59:21;5.40;99.50
4425;DHT22;2225;53.568;13.266;2024-01-15T01:01:48;5.40;99.50
4425;DHT22;2225;53.568;13.266;2024-01-15T01:04:15;5.30;99.40
4425;DHT22;2225;53.568;13.266;2024-01-15T01:06:43;5.30;99.30
4425;DHT22;2225;53.568;13.266;2024-01-15T01:09:10;5.30;99.30
4425;DHT22;2225;53.568;13.266;2024-01-15T01:11:37;5.30;99.30
4425;DHT22;2225;53.568;13.266;2024-01-15T01:14:03;5.30;99.30
4425;DHT22;2225;53.568;13.266;2024-01-15T01:16:30;5.20;99.20
4425;DHT22;2225;53.568;13.266;2024-01-15T01:18:58;5.20;99.20
4425;DHT22;2225;53.568;13.266;2024-01-15T01:21:25;5.20;99.20
4425;DHT22;2225;53.568;13.266;2024-01-15T01:23:52;5.20;99.20
4425;DHT22;2225;53.568;13.266;2024-01-15T01:26:19;5.10;99.20
4425;DHT22;2225;53.568;13.266;2024-01-15T01:28:46;5.10;99.20
4425;DHT22;2225;53.568;13.266;2024-01-15T01:31:13;5.10;99.20
4425;DHT22;2225;53.568;13.266;2024-01-15T01:33:40;5.10;99.60
4425;DHT22;2225;53.568;13.266;2024-01-15T01:36:09;5.10;99.40
4425;DHT22;2225;53.568;13.266;2024-01-15T01:38:37;5.10;99.40
4425;DHT22;2225;53.568;13.266;2024-01-15T01:41:04;5.00;99.40
4425;DHT22;2225;53.568;13.266;2024-01-15T01:43:31;5.00;99.40
4425;DHT22;2225;53.568;13.266;2024-01-15T01:45:58;5.00;99.50
4425;DHT22;2225;53.568;13.266;2024-01-15T01:48:27;5.00;99.60
4425;DHT22;2225;53.568;13.266;2024-01-15T01:50:58;5.00;99.60
4425;DHT22;2225;53.568;13.266;2024-01-15T01:53:26;4.90;99.60
4425;DHT22;2225;53.568;13.266;2024-01-15T01:55:54;5.00;99.60
4425;DHT22;2225;53.568;13.266;2024-01-15T01:58:22;5.00;99.60
4425;DHT22;2225;53.568;13.266;2024-01-15T02:00:49;5.00;99.60
4425;DHT22;2225;53.568;13.266;2024-01-15T02:03:17;5.00;99.50
4425;DHT22;2225;53.568;13.266;2024-01-15T02:05:44;5.10;99.60
4425;DHT22;2225;53.568;13.266;2024-01-15T02:08:12;5.10;99.60
4425;DHT22;2225;53.568;13.266;2024-01-15T02:10:38;5.20;99.50
4425;DHT22;2225;53.568;13.266;2024-01-15T02:13:06;5.20;99.50
4425;DHT22;2225;53.568;13.266;2024-01-15T02:15:32;5.20;99.40
4425;DHT22;2225;53.568;13.266;2024-01-15T02:18:06;5.20;99.40
4425;DHT22;2225;53.568;13.266;2024-01-15T02:20:37;5.20;99.30
4425;DHT22;2225;53.568;13.266;2024-01-15T02:23:13;5.20;99.20
4425;DHT22;2225;53.568;13.266;2024-01-15T02:25:45;5.30;99.30
4425;DHT22;2225;53.568;13.266;2024-01-15T02:28:15;5.30;99.20
4425;DHT22;2225;53.568;13.266;2024-01-15T02:30:43;5.40;99.20
4425;DHT22;2225;53.568;13.266;2024-01-15T02:33:11;5.30;99.10
4425;DHT22;2225;53.568;13.266;2024-01-15T02:35:39;5.30;99.00
4425;DHT22;2225;53.568;13.266;2024-01-15T02:38:07;5.40;99.10
4425;DHT22;2225;53.568;13.266;2024-01-15T02:40:35;5.40;99.10
4425;DHT22;2225;53.568;13.266;2024-01-15T02:43:02;5.30;99.00
4425;DHT22;2225;53.568;13.266;2024-01-15T02:45:29;5.40;99.00
4425;DHT22;2225;53.568;13.266;2024-01-15T02:47:56;5.40;99.40
4425;DHT22;2225;53.568;13.266;2024-01-15T02:50:23;5.40;99.00
4425;DHT22;2225;53.568;13.266;2024-01-15T02:52:50;5.40;99.00
4425;DHT22;2225;53.568;13.266;2024-01-15T02:55:17;5.40;99.00
4425;DHT22;2225;53.568;13.266;2024-01-15T02:57:44;5.40;99.10
4425;DHT22;2225;53.568;13.266;2024-01-15T03:00:12;5.40;99.20
4425;DHT22;2225;53.568;13.266;2024-01-15T03:02:41;5.40;99.40
4425;DHT22;2225;53.568;13.266;2024-01-15T03:05:13;5.40;99.50
4425;DHT22;2225;53.568;13.266;2024-01-15T03:07:41;5.40;99.70
4425;DHT22;2225;53.568;13.266;2024-01-15T03:10:08;5.40;99.80
4425;DHT22;2225;53.568;13.266;2024-01-15T03:12:35;5.40;99.90
4425;DHT22;2225;53.568;13.266;2024-01-15T03:15:02;5.40;99.90
4425;DHT22;2225;53.568;13.266;2024-01-15T03:17:30;5.40;99.90
4425;DHT22;2225;53.568;13.266;2024-01-15T03:19:57;5.30;99.90
4425;DHT22;2225;53.568;13.266;2024-01-15T03:22:24;5.30;99.90
4425;DHT22;2225;53.568;13.266;2024-01-15T03:24:52;5.30;99.90
4425;DHT22;2225;53.568;13.266;2024-01-15T03:27:20;5.30;99.90
4425;DHT22;2225;53.568;13.266;2024-01-15T03:29:47;5.30;99.90
4425;DHT22;2225;53.568;13.266;2024-01-15T03:32:13;5.30;99.90
4425;DHT22;2225;53.568;13.266;2024-01-15T03:34:42;5.30;99.90
4425;DHT22;2225;53.568;13.266;2024-01-15T03:37:09;5.40;99.90
4425;DHT22;2225;53.568;13.266;2024-01-15T03:39:36;5.40;99.80
4425;DHT22;2225;53.568;13.266;2024-01-15T03:42:04;5.40;99.80
4425;DHT22;2225;53.568;13.266;2024-01-15T03:44:31;5.50;99.90
4425;DHT22;2225;53.568;13.266;2024-01-15T03:46:58;5.50;99.60
4425;DHT22;2225;53.568;13.266;2024-01-15T03:49:25;5.50;99.50
4425;DHT22;2225;53.568;13.266;2024-01-15T03:51:52;5.50;99.50
4425;DHT22;2225;53.568;13.266;2024-01-15T03:54:19;5.50;99.40
4425;DHT22;2225;53.568;13.266;2024-01-15T03:56:46;5.60;99.20
4425;DHT22;2225;53.568;13.266;2024-01-15T03:59:13;5.50;99.30
4425;DHT22;2225;53.568;13.266;2024-01-15T04:01:40;5.50;99.30
4425;DHT22;2225;53.568;13.266;2024-01-15T04:04:07;5.50;99.40
4425;DHT22;2225;53.568;13.266;2024-01-15T04:06:34;5.50;99.30
4425;DHT22;2225;53.568;13.266;2024-01-15T04:09:02;5.50;99.20
4425;DHT22;2225;53.568;13.266;2024-01-15T04:11:29;5.40;99.10
4425;DHT22;2225;53.568;13.266;2024-01-15T04:13:56;5.40;99.00
4425;DHT22;2225;53.568;13.266;2024-01-15T04:16:23;5.40;98.80
4425;DHT22;2225;53.568;13.266;2024-01-15T04:18:50;5.40;98.80
4425;DHT22;2225;53.568;13.266;2024-01-15T04:21:17;5.40;98.80
4425;DHT22;2225;53.568;13.266;2024-01-15T04:23:45;5.40;98.70
4425;DHT22;2225;53.568;13.266;2024-01-15T04:26:12;5.40;98.70
4425;DHT22;2225;53.568;13.266;2024-01-15T04:28:38;5.40;98.60
4425;DHT22;2225;53.568;13.266;2024-01-15T04:31:05;5.40;98.70
4425;DHT22;2225;53.568;13.266;2024-01-15T04:33:33;5.40;98.60
4425;DHT22;2225;53.568;13.266;2024-01-15T04:36:04;5.40;98.30
4425;DHT22;2225;53.568;13.266;2024-01-15T04:38:32;5.40;98.30
4425;DHT22;2225;53.568;13.266;2024-01-15T04:40:59;5.50;98.30
4425;DHT22;2225;53.568;13.266;2024-01-15T04:43:26;5.50;98.30
4425;DHT22;2225;53.568;13.266;2024-01-15T04:45:53;5.60;98.30
4425;DHT22;2225;53.568;13.266;2024-01-15T04:48:21;5.60;97.90
4425;DHT22;2225;53.568;13.266;2024-01-15T04:50:49;5.60;97.80
4425;DHT22;2225;53.568;13.266;2024-01-15T04:53:17;5.60;97.80
4425;DHT22;2225;53.568;13.266;2024-01-15T04:55:44;5.60;97.80
4425;DHT22;2225;53.568;13.266;2024-01-15T04:58:11;5.70;97.70
4425;DHT22;2225;53.568;13.266;2024-01-15T05:00:38;5.70;97.70
4425;DHT22;2225;53.568;13.266;2024-01-15T05:03:06;5.70;97.70
4425;DHT22;2225;53.568;13.266;2024-01-15T05:05:33;5.70;98.00
4425;DHT22;2225;53.568;13.266;2024-01-15T05:08:00;5.60;97.70
4425;DHT22;2225;53.568;13.266;2024-01-15T05:10:27;5.60;97.70
4425;DHT22;2225;53.568;13.266;2024-01-15T05:12:53;5.70;97.70
4425;DHT22;2225;53.568;13.266;2024-01-15T05:15:20;5.70;97.80
4425;DHT22;2225;53.568;13.266;2024-01-15T05:17:47;5.70;97.90
4425;DHT22;2225;53.568;13.266;2024-01-15T05:20:15;5.70;97.80
4425;DHT22;2225;53.568;13.266;2024-01-15T05:22:42;5.70;98.00
4425;DHT22;2225;53.568;13.266;2024-01-15T05:25:09;5.70;98.00
4425;DHT22;2225;53.568;13.266;2024-01-15T05:27:36;5.70;98.10
4425;DHT22;2225;53.568;13.266;2024-01-15T05:30:03;5.70;98.20
4425;DHT22;2225;53.568;13.266;2024-01-15T05:32:31;5.70;98.40
4425;DHT22;2225;53.568;13.266;2024-01-15T05:34:58;5.60;98.60
4425;DHT22;2225;53.568;13.266;2024-01-15T05:37:25;5.60;98.60
4425;DHT22;2225;53.568;13.266;2024-01-15T05:39:52;5.70;98.80
4425;DHT22;2225;53.568;13.266;2024-01-15T05:42:19;5.60;99.00
4425;DHT22;2225;53.568;13.266;2024-01-15T05:44:46;5.70;99.10
4425;DHT22;2225;53.568;13.266;2024-01-15T05:47:13;5.60;99.30
4425;DHT22;2225;53.568;13.266;2024-01-15T05:49:40;5.60;99.50
4425;DHT22;2225;53.568;13.266;2024-01-15T05:52:07;5.60;99.60
4425;DHT22;2225;53.568;13.266;2024-01-15T05:54:34;5.60;99.70
4425;DHT22;2225;53.568;13.266;2024-01-15T05:57:01;5.50;99.80
4425;DHT22;2225;53.568;13.266;2024-01-15T05:59:28;5.50;99.60
4425;DHT22;2225;53.568;13.266;2024-01-15T06:01:58;5.50;99.50
4425;DHT22;2225;53.568;13.266;2024-01-15T06:04:25;5.40;99.40
4425;DHT22;2225;53.568;13.266;2024-01-15T06:06:52;5.40;99.40
4425;DHT22;2225;53.568;13.266;2024-01-15T06:09:19;5.40;99.40
4425;DHT22;2225;53.568;13.266;2024-01-15T06:11:46;5.40;99.40
4425;DHT22;2225;53.568;13.266;2024-01-15T06:14:13;5.40;99.40
4425;DHT22;2225;53.568;13.266;2024-01-15T06:16:40;5.40;99.40
4425;DHT22;2225;53.568;13.266;2024-01-15T06:19:07;5.50;99.40
4425;DHT22;2225;53.568;13.266;2024-01-15T06:21:34;5.50;99.40
4425;DHT22;2225;53.568;13.266;2024-01-15T06:24:01;5.50;99.30
4425;DHT22;2225;53.568;13.266;2024-01-15T06:26:28;5.50;99.30
4425;DHT22;2225;53.568;13.266;2024-01-15T06:28:55;5.50;99.60
4425;DHT22;2225;53.568;13.266;2024-01-15T06:31:22;5.50;99.20
4425;DHT22;2225;53.568;13.266;2024-01-15T06:33:49;5.50;99.00
4425;DHT22;2225;53.568;13.266;2024-01-15T06:36:16;5.50;98.70
4425;DHT22;2225;53.568;13.266;2024-01-15T06:38:43;5.50;98.70
4425;DHT22;2225;53.568;13.266;2024-01-15T06:41:11;5.50;98.60
4425;DHT22;2225;53.568;13.266;2024-01-15T06:43:38;5.50;98.40
4425;DHT22;2225;53.568;13.266;2024-01-15T06:46:05;5.50;98.30
4425;DHT22;2225;53.568;13.266;2024-01-15T06:48:34;5.50;98.30
4425;DHT22;2225;53.568;13.266;2024-01-15T06:51:01;5.50;98.20
4425;DHT22;2225;53.568;13.266;2024-01-15T06:53:28;5.50;98.00
4425;DHT22;2225;53.568;13.266;2024-01-15T06:55:55;5.50;97.90
4425;DHT22;2225;53.568;13.266;2024-01-15T06:58:22;5.50;97.70
4425;DHT22;2225;53.568;13.266;2024-01-15T07:00:49;5.50;97.50
4425;DHT22;2225;53.568;13.266;2024-01-15T07:03:16;5.50;97.60
4425;DHT22;2225;53.568;13.266;2024-01-15T07:05:43;5.50;97.60
4425;DHT22;2225;53.568;13.266;2024-01-15T07:08:10;5.50;97.50
4425;DHT22;2225;53.568;13.266;2024-01-15T07:10:37;5.60;97.50
4425;DHT22;2225;53.568;13.266;2024-01-15T07:13:04;5.60;97.30
4425;DHT22;2225;53.568;13.266;2024-01-15T07:15:32;5.60;97.40
4425;DHT22;2225;53.568;13.266;2024-01-15T07:17:59;5.60;97.40
4425;DHT22;2225;53.568;13.266;2024-01-15T07:20:26;5.60;97.20
4425;DHT22;2225;53.568;13.266;2024-01-15T07:22:53;5.60;97.40
4425;DHT22;2225;53.568;13.266;2024-01-15T07:25:20;5.70;97.20
4425;DHT22;2225;53.568;13.266;2024-01-15T07:27:47;5.70;97.20
4425;DHT22;2225;53.568;13.266;2024-01-15T07:30:14;5.70;97.10
4425;DHT22;2225;53.568;13.266;2024-01-15T07:32:42;5.70;96.60
4425;DHT22;2225;53.568;13.266;2024-01-15T07:35:09;5.70;96.50
4425;DHT22;2225;53.568;13.266;2024-01-15T07:37:37;5.70;96.70
4425;DHT22;2225;53.568;13.266;2024-01-15T07:40:04;5.70;96.30
4425;DHT22;2225;53.568;13.266;2024-01-15T07:42:33;5.70;96.10
4425;DHT22;2225;53.568;13.266;2024-01-15T07:45:01;5.70;95.90
4425;DHT22;2225;53.568;13.266;2024-01-15T07:47:28;5.70;95.70
4425;DHT22;2225;53.568;13.266;2024-01-15T07:49:55;5.70;95.50
4425;DHT22;2225;53.568;13.266;2024-01-15T07:52:25;5.80;94.70
4425;DHT22;2225;53.568;13.266;2024-01-15T07:54:52;5.70;94.20
4425;DHT22;2225;53.568;13.266;2024-01-15T07:57:19;5.80;94.20
4425;DHT22;2225;53.568;13.266;2024-01-15T07:59:46;5.80;94.40
4425;DHT22;2225;53.568;13.266;2024-01-15T08:02:13;5.80;94.20
4425;DHT22;2225;53.568;13.266;2024-01-15T08:04:40;5.90;94.00
4425;DHT22;2225;53.568;13.266;2024-01-15T08:07:07;5.80;93.70
4425;DHT22;2225;53.568;13.266;2024-01-15T08:09:34;5.90;93.70
4425;DHT22;2225;53.568;13.266;2024-01-15T08:12:01;5.90;93.70
4425;DHT22;2225;53.568;13.266;2024-01-15T08:14:28;6.00;93.00
4425;DHT22;2225;53.568;13.266;2024-01-15T08:16:55;6.00;92.20
4425;DHT22;2225;53.568;13.266;2024-01-15T08:19:22;5.90;91.00
4425;DHT22;2225;53.568;13.266;2024-01-15T08:21:50;5.90;91.00
4425;DHT22;2225;53.568;13.266;2024-01-15T08:24:17;5.80;90.60
4425;DHT22;2225;53.568;13.266;2024-01-15T08:26:44;5.80;91.10
4425;DHT22;2225;53.568;13.266;2024-01-15T08:29:11;5.80;91.20
4425;DHT22;2225;53.568;13.266;2024-01-15T08:31:38;5.90;91.70
4425;DHT22;2225;53.568;13.266;2024-01-15T08:34:06;5.90;91.90
4425;DHT22;2225;53.568;13.266;2024-01-15T08:36:33;6.00;92.20
4425;DHT22;2225;53.568;13.266;2024-01-15T08:39:02;6.00;92.30
4425;DHT22;2225;53.568;13.266;2024-01-15T08:41:33;6.00;91.50
4425;DHT22;2225;53.568;13.266;2024-01-15T08:44:01;6.00;91.10
4425;DHT22;2225;53.568;13.266;2024-01-15T08:46:29;6.00;91.20
4425;DHT22;2225;53.568;13.266;2024-01-15T08:48:56;6.00;91.30
4425;DHT22;2225;53.568;13.266;2024-01-15T08:51:23;6.00;91.30
4425;DHT22;2225;53.568;13.266;2024-01-15T08:53:50;6.00;91.10
4425;DHT22;2225;53.568;13.266;2024-01-15T08:56:17;6.00;91.10
4425;DHT22;2225;53.568;13.266;2024-01-15T08:58:44;6.00;91.30
4425;DHT22;2225;53.568;13.266;2024-01-15T09:01:12;6.10;91.80
4425;DHT22;2225;53.568;13.266;2024-01-15T09:03:40;6.10;91.70
4425;DHT22;2225;53.568;13.266;2024-01-15T09:06:10;6.10;92.00
4425;DHT22;2225;53.568;13.266;2024-01-15T09:08:37;6.10;91.90
4425;DHT22;2225;53.568;13.266;2024-01-15T09:11:04;6.20;92.10
4425;DHT22;2225;53.568;13.266;2024-01-15T09:13:31;6.20;91.80
4425;DHT22;2225;53.568;13.266;2024-01-15T09:15:58;6.20;92.10
4425;DHT22;2225;53.568;13.266;2024-01-15T09:18:26;6.20;92.30
4425;DHT22;2225;53.568;13.266;2024-01-15T09:20:54;6.20;92.40
4425;DHT22;2225;53.568;13.266;2024-01-15T09:23:21;6.20;92.30
4425;DHT22;2225;53.568;13.266;2024-01-15T09:25:48;6.20;92.30
4425;DHT22;2225;53.568;13.266;2024-01-15T09:28:16;6.20;91.90
4425;DHT22;2225;53.568;13.266;2024-01-15T09:30:43;6.30;92.10
4425;DHT22;2225;53.568;13.266;2024-01-15T09:33:11;6.30;92.20
4425;DHT22;2225;53.568;13.266;2024-01-15T09:35:38;6.30;91.90
4425;DHT22;2225;53.568;13.266;2024-01-15T09:38:05;6.30;92.10
4425;DHT22;2225;53.568;13.266;2024-01-15T09:40:32;6.30;92.00
4425;DHT22;2225;53.568;13.266;2024-01-15T09:43:01;6.30;91.90
4425;DHT22;2225;53.568;13.266;2024-01-15T09:45:29;6.30;92.10
4425;DHT22;2225;53.568;13.266;2024-01-15T09:47:56;6.30;91.80
4425;DHT22;2225;53.568;13.266;2024-01-15T09:50:23;6.40;91.90
4425;DHT22;2225;53.568;13.266;2024-01-15T09:52:50;6.40;91.90
4425;DHT22;2225;53.568;13.266;2024-01-15T09:55:18;6.40;91.80
4425;DHT22;2225;53.568;13.266;2024-01-15T09:57:45;6.40;91.40
4425;DHT22;2225;53.568;13.266;2024-01-15T10:00:17;6.40;91.30
4425;DHT22;2225;53.568;13.266;2024-01-15T10:02:44;6.40;91.00
4425;DHT22;2225;53.568;13.266;2024-01-15T10:05:11;6.40;90.90
4425;DHT22;2225;53.568;13.266;2024-01-15T10:07:39;6.40;90.70
4425;DHT22;2225;53.568;13.266;2024-01-15T10:10:07;6.40;90.50
4425;DHT22;2225;53.568;13.266;2024-01-15T10:12:34;6.40;90.30
4425;DHT22;2225;53.568;13.266;2024-01-15T10:15:02;6.30;90.40
4425;DHT22;2225;53.568;13.266;2024-01-15T10:17:29;6.40;90.70
4425;DHT22;2225;53.568;13.266;2024-01-15T10:19:57;6.40;90.60
4425;DHT22;2225;53.568;13.266;2024-01-15T10:22:25;6.40;89.60
4425;DHT22;2225;53.568;13.266;2024-01-15T10:24:52;6.40;89.90
4425;DHT22;2225;53.568;13.266;2024-01-15T10:27:20;6.40;90.20
4425;DHT22;2225;53.568;13.266;2024-01-15T10:29:47;6.40;89.30
4425;DHT22;2225;53.568;13.266;2024-01-15T10:32:14;6.40;89.00
4425;DHT22;2225;53.568;13.266;2024-01-15T10:34:41;6.40;88.90
4425;DHT22;2225;53.568;13.266;2024-01-15T10:37:10;6.40;88.90
4425;DHT22;2225;53.568;13.266;2024-01-15T10:39:37;6.30;89.10
4425;DHT22;2225;53.568;13.266;2024-01-15T10:42:05;6.30;88.90
4425;DHT22;2225;53.568;13.266;2024-01-15T10:44:33;6.30;90.40
4425;DHT22;2225;53.568;13.266;2024-01-15T10:47:01;6.30;91.20
4425;DHT22;2225;53.568;13.266;2024-01-15T10:49:28;6.20;91.30
4425;DHT22;2225;53.568;13.266;2024-01-15T10:52:01;6.10;91.30
4425;DHT22;2225;53.568;13.266;2024-01-15T10:54:29;6.00;91.50
4425;DHT22;2225;53.568;13.266;2024-01-15T10:56:57;5.90;91.70
4425;DHT22;2225;53.568;13.266;2024-01-15T10:59:24;5.70;91.80
4425;DHT22;2225;53.568;13.266;2024-01-15T11:01:52;5.70;91.90
4425;DHT22;2225;53.568;13.266;2024-01-15T11:04:22;5.50;92.20
4425;DHT22;2225;53.568;13.266;2024-01-15T11:06:52;5.40;92.30
4425;DHT22;2225;53.568;13.266;2024-01-15T11:09:23;5.40;92.50
4425;DHT22;2225;53.568;13.266;2024-01-15T11:11:54;5.40;92.20
4425;DHT22;2225;53.568;13.266;2024-01-15T11:14:46;5.40;92.50
4425;DHT22;2225;53.568;13.266;2024-01-15T11:17:15;5.40;91.80
4425;DHT22;2225;53.568;13.266;2024-01-15T11:19:50;5.30;91.70
4425;DHT22;2225;53.568;13.266;2024-01-15T11:22:47;5.40;91.40
4425;DHT22;2225;53.568;13.266;2024-01-15T11:25:16;5.40;91.70
4425;DHT22;2225;53.568;13.266;2024-01-15T11:27:51;5.40;91.50
4425;DHT22;2225;53.568;13.266;2024-01-15T11:30:19;5.40;91.20
4425;DHT22;2225;53.568;13.266;2024-01-15T11:32:47;5.40;91.20
4425;DHT22;2225;53.568;13.266;2024-01-15T11:35:14;5.40;91.40
4425;DHT22;2225;53.568;13.266;2024-01-15T11:40:37;5.40;90.90
4425;DHT22;2225;53.568;13.266;2024-01-15T11:43:06;5.40;91.30
4425;DHT22;2225;53.568;13.266;2024-01-15T11:45:33;5.50;91.40
4425;DHT22;2225;53.568;13.266;2024-01-15T11:48:14;5.50;91.50
4425;DHT22;2225;53.568;13.266;2024-01-15T11:50:45;5.60;91.30
4425;DHT22;2225;53.568;13.266;2024-01-15T11:53:27;5.60;91.40
4425;DHT22;2225;53.568;13.266;2024-01-15T11:56:02;5.70;91.00
4425;DHT22;2225;53.568;13.266;2024-01-15T11:58:30;5.60;90.60
4425;DHT22;2225;53.568;13.266;2024-01-15T12:00:57;5.60;90.30
4425;DHT22;2225;53.568;13.266;2024-01-15T12:03:25;5.50;90.30
4425;DHT22;2225;53.568;13.266;2024-01-15T12:05:52;5.40;90.20
4425;DHT22;2225;53.568;13.266;2024-01-15T12:08:23;5.40;90.20
4425;DHT22;2225;53.568;13.266;2024-01-15T12:10:50;5.30;90.20
4425;DHT22;2225;53.568;13.266;2024-01-15T12:13:18;5.20;90.30
4425;DHT22;2225;53.568;13.266;2024-01-15T12:15:46;5.20;90.30
4425;DHT22;2225;53.568;13.266;2024-01-15T12:18:15;5.10;90.30
4425;DHT22;2225;53.568;13.266;2024-01-15T12:20:46;5.10;90.20
4425;DHT22;2225;53.568;13.266;2024-01-15T12:23:17;5.10;90.20
4425;DHT22;2225;53.568;13.266;2024-01-15T12:25:45;5.00;90.00
4425;DHT22;2225;53.568;13.266;2024-01-15T12:28:14;5.00;90.00
4425;DHT22;2225;53.568;13.266;2024-01-15T12:30:41;5.00;90.10
4425;DHT22;2225;53.568;13.266;2024-01-15T12:33:09;5.00;89.60
4425;DHT22;2225;53.568;13.266;2024-01-15T12:35:36;5.00;89.90
4425;DHT22;2225;53.568;13.266;2024-01-15T12:38:04;5.00;89.60
4425;DHT22;2225;53.568;13.266;2024-01-15T12:40:32;5.00;89.50
4425;DHT22;2225;53.568;13.266;2024-01-15T12:43:01;5.00;89.70
4425;DHT22;2225;53.568;13.266;2024-01-15T12:45:29;5.10;89.60
4425;DHT22;2225;53.568;13.266;2024-01-15T12:47:56;5.10;88.90
4425;DHT22;2225;53.568;13.266;2024-01-15T12:50:25;5.00;88.70
4425;DHT22;2225;53.568;13.266;2024-01-15T12:52:52;5.00;87.60
4425;DHT22;2225;53.568;13.266;2024-01-15T12:55:19;5.00;87.10
4425;DHT22;2225;53.568;13.266;2024-01-15T12:57:46;5.00;87.00
4425;DHT22;2225;53.568;13.266;2024-01-15T13:00:14;5.00;87.10
4425;DHT22;2225;53.568;13.266;2024-01-15T13:02:42;5.00;86.40
4425;DHT22;2225;53.568;13.266;2024-01-15T13:05:10;5.00;86.30
4425;DHT22;2225;53.568;13.266;2024-01-15T13:07:40;5.00;86.70
4425;DHT22;2225;53.568;13.266;2024-01-15T13:10:07;4.90;86.50
4425;DHT22;2225;53.568;13.266;2024-01-15T13:12:36;4.90;86.60
4425;DHT22;2225;53.568;13.266;2024-01-15T13:15:03;4.90;87.10
4425;DHT22;2225;53.568;13.266;2024-01-15T13:17:31;4.90;86.80
4425;DHT22;2225;53.568;13.266;2024-01-15T13:19:58;4.90;86.80
4425;DHT22;2225;53.568;13.266;2024-01-15T13:22:25;4.90;87.50
4425;DHT22;2225;53.568;13.266;2024-01-15T13:24:59;4.90;87.00
4425;DHT22;2225;53.568;13.266;2024-01-15T13:27:27;5.00;87.10
4425;DHT22;2225;53.568;13.266;2024-01-15T13:29:55;5.00;87.60
4425;DHT22;2225;53.568;13.266;2024-01-15T13:32:25;5.00;87.80
4425;DHT22;2225;53.568;13.266;2024-01-15T13:34:56;5.00;86.80
4425;DHT22;2225;53.568;13.266;2024-01-15T13:37:24;5.00;86.90
4425;DHT22;2225;53.568;13.266;2024-01-15T13:39:52;5.00;86.80
4425;DHT22;2225;53.568;13.266;2024-01-15T13:42:20;4.90;87.30
4425;DHT22;2225;53.568;13.266;2024-01-15T13:44:50;4.90;87.70
4425;DHT22;2225;53.568;13.266;2024-01-15T13:47:18;4.90;88.00
4425;DHT22;2225;53.568;13.266;2024-01-15T13:49:45;4.90;88.10
4425;DHT22;2225;53.568;13.266;2024-01-15T13:52:12;4.80;87.60
4425;DHT22;2225;53.568;13.266;2024-01-15T13:54:40;4.80;87.80
4425;DHT22;2225;53.568;13.266;2024-01-15T13:57:17;4.80;88.10
4425;DHT22;2225;53.568;13.266;2024-01-15T13:59:45;4.80;88.40
4425;DHT22;2225;53.568;13.266;2024-01-15T14:02:12;4.80;88.70
4425;DHT22;2225;53.568;13.266;2024-01-15T14:04:46;4.80;88.90
4425;DHT22;2225;53.568;13.266;2024-01-15T14:07:13;4.80;88.90
4425;DHT22;2225;53.568;13.266;2024-01-15T14:09:40;4.80;88.70
4425;DHT22;2225;53.568;13.266;2024-01-15T14:12:07;4.80;88.80
4425;DHT22;2225;53.568;13.266;2024-01-15T14:14:34;4.80;89.00
4425;DHT22;2225;53.568;13.266;2024-01-15T14:17:01;4.70;88.90
4425;DHT22;2225;53.568;13.266;2024-01-15T14:19:28;4.70;89.00
4425;DHT22;2225;53.568;13.266;2024-01-15T14:21:55;4.70;89.10
4425;DHT22;2225;53.568;13.266;2024-01-15T14:24:22;4.70;89.10
4425;DHT22;2225;53.568;13.266;2024-01-15T14:26:50;4.60;87.90
4425;DHT22;2225;53.568;13.266;2024-01-15T14:29:16;4.60;88.00
4425;DHT22;2225;53.568;13.266;2024-01-15T14:31:47;4.70;87.40
4425;DHT22;2225;53.568;13.266;2024-01-15T14:34:14;4.60;87.10
4425;DHT22;2225;53.568;13.266;2024-01-15T14:36:42;4.60;87.10
4425;DHT22;2225;53.568;13.266;2024-01-15T14:39:10;4.60;86.90
4425;DHT22;2225;53.568;13.266;2024-01-15T14:41:37;4.60;87.10
4425;DHT22;2225;53.568;13.266;2024-01-15T14:44:04;4.60;87.20
4425;DHT22;2225;53.568;13.266;2024-01-15T14:46:31;4.60;86.80
4425;DHT22;2225;53.568;13.266;2024-01-15T14:48:58;4.60;87.20
4425;DHT22;2225;53.568;13.266;2024-01-15T14:51:25;4.60;87.20
4425;DHT22;2225;53.568;13.266;2024-01-15T14:53:52;4.60;87.70
4425;DHT22;2225;53.568;13.266;2024-01-15T14:56:20;4.60;87.70
4425;DHT22;2225;53.568;13.266;2024-01-15T14:58:47;4.60;87.70
4425;DHT22;2225;53.568;13.266;2024-01-15T15:01:14;4.60;87.80
4425;DHT22;2225;53.568;13.266;2024-01-15T15:03:42;4.50;87.90
4425;DHT22;2225;53.568;13.266;2024-01-15T15:06:10;4.50;88.20
4425;DHT22;2225;53.568;13.266;2024-01-15T15:08:39;4.50;88.30
4425;DHT22;2225;53.568;13.266;2024-01-15T15:11:07;4.50;88.30
4425;DHT22;2225;53.568;13.266;2024-01-15T15:13:34;4.50;87.40
4425;DHT22;2225;53.568;13.266;2024-01-15T15:16:11;4.50;87.70
4425;DHT22;2225;53.568;13.266;2024-01-15T15:18:40;4.50;88.40
4425;DHT22;2225;53.568;13.266;2024-01-15T15:21:10;4.50;88.50
4425;DHT22;2225;53.568;13.266;2024-01-15T15:23:38;4.50;88.30
4425;DHT22;2225;53.568;13.266;2024-01-15T15:26:08;4.50;88.50
4425;DHT22;2225;53.568;13.266;2024-01-15T15:28:35;4.50;88.40
4425;DHT22;2225;53.568;13.266;2024-01-15T15:31:06;4.40;88.20
4425;DHT22;2225;53.568;13.266;2024-01-15T15:33:38;4.40;88.10
4425;DHT22;2225;53.568;13.266;2024-01-15T15:36:06;4.40;88.30
4425;DHT22;2225;53.568;13.266;2024-01-15T15:38:33;4.40;88.70
4425;DHT22;2225;53.568;13.266;2024-01-15T15:41:00;4.40;88.00
4425;DHT22;2225;53.568;13.266;2024-01-15T15:43:28;4.40;88.10
4425;DHT22;2225;53.568;13.266;2024-01-15T15:45:56;4.50;88.30
4425;DHT22;2225;53.568;13.266;2024-01-15T15:48:26;4.40;88.30
4425;DHT22;2225;53.568;13.266;2024-01-15T15:50:53;4.40;88.50
4425;DHT22;2225;53.568;13.266;2024-01-15T15:53:22;4.40;88.60
4425;DHT22;2225;53.568;13.266;2024-01-15T15:55:49;4.40;88.40
4425;DHT22;2225;53.568;13.266;2024-01-15T15:58:16;4.40;88.40
4425;DHT22;2225;53.568;13.266;2024-01-15T16:00:43;4.40;88.60
4425;DHT22;2225;53.568;13.266;2024-01-15T16:03:10;4.40;88.20
4425;DHT22;2225;53.568;13.266;2024-01-15T16:05:37;4.40;88.80
4425;DHT22;2225;53.568;13.266;2024-01-15T16:08:17;4.40;89.10